sensor_id;sensor_type;location;lat;lon;timestamp;pressure;altitude;pressure_sealevel;temperature;humidity
10462;BME280;5278;42.656;23.374;2024-02-21T00:01:32;95267.59;;;7.69;89.72
10462;BME280;5278;42.656;23.374;2024-02-21T00:03:58;95270.97;;;7.79;90.19
10462;BME280;5278;42.656;23.374;2024-02-21T00:06:25;95267.47;;;7.70;90.22
10462;BME280;5278;42.656;23.374;2024-02-21T00:08:52;95272.72;;;7.78;89.55
10462;BME280;5278;42.656;23.374;2024-02-21T00:11:20;95275.31;;;7.78;89.77
10462;BME280;5278;42.656;23.374;2024-02-21T00:13:47;95265.22;;;7.85;89.45
10462;BME280;5278;42.656;23.374;2024-02-21T00:16:14;95263.69;;;7.92;88.92
10462;BME280;5278;42.656;23.374;2024-02-21T00:18:41;95261.78;;;7.94;88.20
10462;BME280;5278;42.656;23.374;2024-02-21T00:21:08;95253.13;;;7.86;88.08
10462;BME280;5278;42.656;23.374;2024-02-21T00:23:34;95270.94;;;7.89;88.50
10462;BME280;5278;42.656;23.374;2024-02-21T00:26:00;95262.91;;;7.82;89.03
10462;BME280;5278;42.656;23.374;2024-02-21T00:28:28;95261.16;;;7.83;88.62
10462;BME280;5278;42.656;23.374;2024-02-21T00:30:55;95254.78;;;7.77;88.96
10462;BME280;5278;42.656;23.374;2024-02-21T00:33:21;95268.41;;;7.69;88.96
10462;BME280;5278;42.656;23.374;2024-02-21T00:35:48;95258.09;;;7.60;89.41
10462;BME280;5278;42.656;23.374;2024-02-21T00:38:15;95261.78;;;7.67;90.01
10462;BME280;5278;42.656;23.374;2024-02-21T00:40:42;95246.09;;;7.68;89.77
10462;BME280;5278;42.656;23.374;2024-02-21T00:43:08;95254.66;;;7.69;89.88
10462;BME280;5278;42.656;23.374;2024-02-21T00:45:36;95263.25;;;7.69;89.72
10462;BME280;5278;42.656;23.374;2024-02-21T00:48:04;95252.75;;;7.71;89.96
10462;BME280;5278;42.656;23.374;2024-02-21T00:50:31;95251.66;;;7.73;89.36
10462;BME280;5278;42.656;23.374;2024-02-21T00:52:57;95251.66;;;7.73;89.58
10462;BME280;5278;42.656;23.374;2024-02-21T00:55:24;95253.00;;;7.77;89.91
10462;BME280;5278;42.656;23.374;2024-02-21T00:57:51;95252.44;;;7.84;89.42
10462;BME280;5278;42.656;23.374;2024-02-21T01:00:18;95247.78;;;7.87;89.21
10462;BME280;5278;42.656;23.374;2024-02-21T01:02:47;95251.56;;;7.93;89.30
10462;BME280;5278;42.656;23.374;2024-02-21T01:05:13;95249.94;;;8.01;88.78
10462;BME280;5278;42.656;23.374;2024-02-21T01:07:40;95241.88;;;8.04;88.07
10462;BME280;5278;42.656;23.374;2024-02-21T01:10:08;95229.66;;;7.97;88.31
10462;BME280;5278;42.656;23.374;2024-02-21T01:12:35;95241.72;;;8.06;87.94
10462;BME280;5278;42.656;23.374;2024-02-21T01:15:02;95227.59;;;8.00;88.01
10462;BME280;5278;42.656;23.374;2024-02-21T01:17:28;95228.94;;;8.04;87.70
10462;BME280;5278;42.656;23.374;2024-02-21T01:19:56;95236.41;;;8.07;87.44
10462;BME280;5278;42.656;23.374;2024-02-21T01:22:23;95226.88;;;8.08;87.55
10462;BME280;5278;42.656;23.374;2024-02-21T01:24:50;95228.50;;;8.09;87.93
10462;BME280;5278;42.656;23.374;2024-02-21T01:27:16;95222.06;;;8.13;87.36
10462;BME280;5278;42.656;23.374;2024-02-21T01:29:43;95229.19;;;8.11;87.87
10462;BME280;5278;42.656;23.374;2024-02-21T01:32:11;95227.53;;;8.10;87.21
10462;BME280;5278;42.656;23.374;2024-02-21T01:34:38;95229.06;;;8.03;87.15
10462;BME280;5278;42.656;23.374;2024-02-21T01:37:06;95200.13;;;7.90;87.63
10462;BME280;5278;42.656;23.374;2024-02-21T01:39:33;95219.41;;;8.05;87.49
10462;BME280;5278;42.656;23.374;2024-02-21T01:42:00;95221.31;;;8.03;87.72
10462;BME280;5278;42.656;23.374;2024-02-21T01:44:26;95217.25;;;8.00;87.56
10462;BME280;5278;42.656;23.374;2024-02-21T01:46:53;95203.25;;;7.93;87.92
10462;BME280;5278;42.656;23.374;2024-02-21T01:49:21;95212.88;;;8.01;87.01
10462;BME280;5278;42.656;23.374;2024-02-21T01:51:48;95168.03;;;7.55;87.29
10462;BME280;5278;42.656;23.374;2024-02-21T01:54:17;95210.34;;;7.91;87.46
10462;BME280;5278;42.656;23.374;2024-02-21T01:56:46;95208.03;;;7.88;87.11
10462;BME280;5278;42.656;23.374;2024-02-21T01:59:13;95208.84;;;7.89;87.45
10462;BME280;5278;42.656;23.374;2024-02-21T02:01:41;95204.78;;;7.86;87.65
10462;BME280;5278;42.656;23.374;2024-02-21T02:04:10;95211.56;;;7.97;87.29
10462;BME280;5278;42.656;23.374;2024-02-21T02:06:37;95215.19;;;8.04;86.86
10462;BME280;5278;42.656;23.374;2024-02-21T02:09:04;95190.81;;;8.24;91.49
10462;BME280;5278;42.656;23.374;2024-02-21T02:11:33;95199.44;;;10.73;94.95
10462;BME280;5278;42.656;23.374;2024-02-21T02:13:59;95184.28;;;12.66;81.97
10462;BME280;5278;42.656;23.374;2024-02-21T02:16:26;95191.44;;;13.99;72.77
10462;BME280;5278;42.656;23.374;2024-02-21T02:18:53;95184.50;;;13.62;61.35
10462;BME280;5278;42.656;23.374;2024-02-21T02:21:23;95189.34;;;12.90;61.55
10462;BME280;5278;42.656;23.374;2024-02-21T02:23:54;95196.03;;;12.08;63.73
10462;BME280;5278;42.656;23.374;2024-02-21T02:26:21;95189.63;;;11.56;65.33
10462;BME280;5278;42.656;23.374;2024-02-21T02:28:48;95180.63;;;11.03;67.54
10462;BME280;5278;42.656;23.374;2024-02-21T02:31:15;95191.00;;;10.63;70.06
10462;BME280;5278;42.656;23.374;2024-02-21T02:33:42;95141.28;;;9.91;71.59
10462;BME280;5278;42.656;23.374;2024-02-21T02:36:10;95183.13;;;9.80;73.72
10462;BME280;5278;42.656;23.374;2024-02-21T02:38:37;95178.59;;;9.57;75.29
10462;BME280;5278;42.656;23.374;2024-02-21T02:41:05;95179.25;;;9.25;76.49
10462;BME280;5278;42.656;23.374;2024-02-21T02:43:32;95183.84;;;9.13;77.81
10462;BME280;5278;42.656;23.374;2024-02-21T02:45:59;95182.84;;;8.88;78.46
10462;BME280;5278;42.656;23.374;2024-02-21T02:48:25;95188.06;;;8.71;80.10
10462;BME280;5278;42.656;23.374;2024-02-21T02:50:52;95193.69;;;8.48;81.40
10462;BME280;5278;42.656;23.374;2024-02-21T02:53:19;95191.19;;;8.29;82.37
10462;BME280;5278;42.656;23.374;2024-02-21T02:55:46;95197.53;;;8.17;82.84
10462;BME280;5278;42.656;23.374;2024-02-21T02:58:14;95202.91;;;8.06;83.94
10462;BME280;5278;42.656;23.374;2024-02-21T03:00:40;95196.56;;;8.00;84.38
10462;BME280;5278;42.656;23.374;2024-02-21T03:03:07;95191.50;;;7.99;84.69
10462;BME280;5278;42.656;23.374;2024-02-21T03:05:34;95195.06;;;7.98;85.29
10462;BME280;5278;42.656;23.374;2024-02-21T03:08:01;95194.09;;;7.99;85.36
10462;BME280;5278;42.656;23.374;2024-02-21T03:10:32;95202.25;;;8.04;85.07
10462;BME280;5278;42.656;23.374;2024-02-21T03:12:59;95204.56;;;8.07;85.55
10462;BME280;5278;42.656;23.374;2024-02-21T03:15:27;95200.47;;;8.04;85.64
10462;BME280;5278;42.656;23.374;2024-02-21T03:17:53;95208.66;;;8.00;85.50
10462;BME280;5278;42.656;23.374;2024-02-21T03:20:20;95216.13;;;8.03;85.67
10462;BME280;5278;42.656;23.374;2024-02-21T03:22:47;95208.91;;;8.06;85.77
10462;BME280;5278;42.656;23.374;2024-02-21T03:25:13;95179.56;;;7.88;85.70
10462;BME280;5278;42.656;23.374;2024-02-21T03:27:40;95208.19;;;8.14;85.53
10462;BME280;5278;42.656;23.374;2024-02-21T03:30:07;95205.22;;;8.09;85.06
10462;BME280;5278;42.656;23.374;2024-02-21T03:32:35;95203.13;;;8.12;85.04
10462;BME280;5278;42.656;23.374;2024-02-21T03:35:04;95213.94;;;8.08;85.02
10462;BME280;5278;42.656;23.374;2024-02-21T03:37:31;95208.81;;;7.98;84.59
10462;BME280;5278;42.656;23.374;2024-02-21T03:39:58;95207.72;;;8.01;84.70
10462;BME280;5278;42.656;23.374;2024-02-21T03:42:24;95241.13;;;8.12;85.15
10462;BME280;5278;42.656;23.374;2024-02-21T03:44:51;95222.75;;;8.15;84.84
10462;BME280;5278;42.656;23.374;2024-02-21T03:47:18;95226.97;;;8.16;84.63
10462;BME280;5278;42.656;23.374;2024-02-21T03:49:46;95221.06;;;8.23;83.99
10462;BME280;5278;42.656;23.374;2024-02-21T03:52:12;95228.16;;;8.21;84.54
10462;BME280;5278;42.656;23.374;2024-02-21T03:54:39;95229.25;;;8.19;84.47
10462;BME280;5278;42.656;23.374;2024-02-21T03:57:06;95223.13;;;8.20;84.31
10462;BME280;5278;42.656;23.374;2024-02-21T03:59:32;95228.69;;;8.25;83.99
10462;BME280;5278;42.656;23.374;2024-02-21T04:01:58;95222.81;;;8.23;83.86
10462;BME280;5278;42.656;23.374;2024-02-21T04:04:25;95224.47;;;8.24;84.13
10462;BME280;5278;42.656;23.374;2024-02-21T04:06:53;95224.56;;;8.05;84.80
10462;BME280;5278;42.656;23.374;2024-02-21T04:09:20;95224.50;;;7.97;85.22
10462;BME280;5278;42.656;23.374;2024-02-21T04:11:47;95214.03;;;7.89;85.28
10462;BME280;5278;42.656;23.374;2024-02-21T04:14:13;95224.56;;;8.05;86.01
10462;BME280;5278;42.656;23.374;2024-02-21T04:16:40;95228.50;;;8.09;85.39
10462;BME280;5278;42.656;23.374;2024-02-21T04:19:07;95112.03;;;7.46;85.13
10462;BME280;5278;42.656;23.374;2024-02-21T04:21:35;95216.13;;;8.03;85.16
10462;BME280;5278;42.656;23.374;2024-02-21T04:24:03;95206.75;;;8.02;84.74
10462;BME280;5278;42.656;23.374;2024-02-21T04:26:30;95218.81;;;8.11;84.55
10462;BME280;5278;42.656;23.374;2024-02-21T04:28:57;95216.50;;;8.08;84.38
10462;BME280;5278;42.656;23.374;2024-02-21T04:31:24;95216.44;;;8.00;84.21
10462;BME280;5278;42.656;23.374;2024-02-21T04:33:51;95218.88;;;8.01;84.38
10462;BME280;5278;42.656;23.374;2024-02-21T04:36:17;95216.03;;;7.95;84.78
10462;BME280;5278;42.656;23.374;2024-02-21T04:38:45;95217.81;;;7.94;84.68
10462;BME280;5278;42.656;23.374;2024-02-21T04:41:13;95220.25;;;7.96;84.46
10462;BME280;5278;42.656;23.374;2024-02-21T04:43:39;95223.50;;;7.98;84.35
10462;BME280;5278;42.656;23.374;2024-02-21T04:46:06;95209.41;;;7.83;84.74
10462;BME280;5278;42.656;23.374;2024-02-21T04:48:33;95218.16;;;7.82;85.36
10462;BME280;5278;42.656;23.374;2024-02-21T04:50:59;95218.44;;;7.78;85.52
10462;BME280;5278;42.656;23.374;2024-02-21T04:53:26;95213.81;;;7.72;86.02
10462;BME280;5278;42.656;23.374;2024-02-21T04:55:53;95220.66;;;7.64;86.70
10462;BME280;5278;42.656;23.374;2024-02-21T04:58:21;95217.94;;;7.65;86.22
10462;BME280;5278;42.656;23.374;2024-02-21T05:00:48;95225.69;;;7.65;86.06
10462;BME280;5278;42.656;23.374;2024-02-21T05:03:15;95221.47;;;7.64;85.99
10462;BME280;5278;42.656;23.374;2024-02-21T05:05:41;95214.97;;;7.60;86.01
10462;BME280;5278;42.656;23.374;2024-02-21T05:08:09;95216.06;;;7.58;86.24
10462;BME280;5278;42.656;23.374;2024-02-21T05:10:36;95199.53;;;7.41;86.29
10462;BME280;5278;42.656;23.374;2024-02-21T05:13:03;95120.78;;;6.89;86.75
10462;BME280;5278;42.656;23.374;2024-02-21T05:15:31;95224.91;;;7.55;86.75
10462;BME280;5278;42.656;23.374;2024-02-21T05:17:58;95238.09;;;7.52;87.00
10462;BME280;5278;42.656;23.374;2024-02-21T05:20:24;95238.09;;;7.52;87.05
10462;BME280;5278;42.656;23.374;2024-02-21T05:22:51;95238.41;;;7.49;87.32
10462;BME280;5278;42.656;23.374;2024-02-21T05:25:18;95227.13;;;7.41;87.37
10462;BME280;5278;42.656;23.374;2024-02-21T05:27:44;95232.16;;;7.52;87.34
10462;BME280;5278;42.656;23.374;2024-02-21T05:30:12;95240.81;;;7.60;87.25
10462;BME280;5278;42.656;23.374;2024-02-21T05:32:40;95235.34;;;7.63;86.97
10462;BME280;5278;42.656;23.374;2024-02-21T05:35:07;95248.84;;;7.67;86.72
10462;BME280;5278;42.656;23.374;2024-02-21T05:37:34;95240.91;;;7.68;86.69
10462;BME280;5278;42.656;23.374;2024-02-21T05:40:00;95236.56;;;7.69;86.99
10462;BME280;5278;42.656;23.374;2024-02-21T05:42:27;95241.03;;;7.76;86.63
10462;BME280;5278;42.656;23.374;2024-02-21T05:44:54;95245.06;;;7.89;86.05
10462;BME280;5278;42.656;23.374;2024-02-21T05:47:20;95239.31;;;7.95;85.98
10462;BME280;5278;42.656;23.374;2024-02-21T05:49:49;95247.44;;;8.09;85.42
10462;BME280;5278;42.656;23.374;2024-02-21T05:52:18;95247.13;;;8.12;85.45
10462;BME280;5278;42.656;23.374;2024-02-21T05:54:45;95246.19;;;8.13;85.38
10462;BME280;5278;42.656;23.374;2024-02-21T05:57:12;95250.78;;;8.19;85.52
10462;BME280;5278;42.656;23.374;2024-02-21T05:59:38;95259.22;;;8.31;84.92
10462;BME280;5278;42.656;23.374;2024-02-21T06:02:07;95248.34;;;8.45;84.67
10462;BME280;5278;42.656;23.374;2024-02-21T06:04:34;95209.63;;;8.26;84.26
10462;BME280;5278;42.656;23.374;2024-02-21T06:07:02;95252.50;;;8.56;83.88
10462;BME280;5278;42.656;23.374;2024-02-21T06:09:29;95259.84;;;8.60;83.79
10462;BME280;5278;42.656;23.374;2024-02-21T06:11:57;95252.44;;;8.66;83.57
10462;BME280;5278;42.656;23.374;2024-02-21T06:14:23;95271.31;;;8.76;82.89
10462;BME280;5278;42.656;23.374;2024-02-21T06:16:50;95266.34;;;8.82;82.60
10462;BME280;5278;42.656;23.374;2024-02-21T06:19:17;95272.81;;;8.96;80.86
10462;BME280;5278;42.656;23.374;2024-02-21T06:21:43;95271.84;;;9.15;80.10
10462;BME280;5278;42.656;23.374;2024-02-21T06:24:11;95264.66;;;9.26;79.05
10462;BME280;5278;42.656;23.374;2024-02-21T06:26:39;95276.25;;;9.40;78.49
10462;BME280;5278;42.656;23.374;2024-02-21T06:29:06;95279.47;;;9.60;77.20
10462;BME280;5278;42.656;23.374;2024-02-21T06:31:33;95279.28;;;9.87;75.79
10462;BME280;5278;42.656;23.374;2024-02-21T06:33:59;95283.09;;;10.26;74.72
10462;BME280;5278;42.656;23.374;2024-02-21T06:36:26;95278.47;;;10.46;73.60
10462;BME280;5278;42.656;23.374;2024-02-21T06:38:53;95278.16;;;10.49;72.15
10462;BME280;5278;42.656;23.374;2024-02-21T06:41:21;95280.16;;;10.63;72.36
10462;BME280;5278;42.656;23.374;2024-02-21T06:43:48;95279.03;;;10.74;70.97
10462;BME280;5278;42.656;23.374;2024-02-21T06:46:23;95289.72;;;10.71;70.81
10462;BME280;5278;42.656;23.374;2024-02-21T06:48:50;95290.88;;;10.68;70.87
10462;BME280;5278;42.656;23.374;2024-02-21T06:51:17;95296.13;;;10.85;70.69
10462;BME280;5278;42.656;23.374;2024-02-21T06:53:43;95301.38;;;11.01;70.25
10462;BME280;5278;42.656;23.374;2024-02-21T06:56:10;95294.06;;;11.12;69.72
10462;BME280;5278;42.656;23.374;2024-02-21T06:58:38;95305.13;;;11.31;68.76
10462;BME280;5278;42.656;23.374;2024-02-21T07:01:05;95295.03;;;11.36;68.46
10462;BME280;5278;42.656;23.374;2024-02-21T07:03:32;95287.09;;;11.45;68.37
10462;BME280;5278;42.656;23.374;2024-02-21T07:05:59;95286.44;;;11.59;67.26
10462;BME280;5278;42.656;23.374;2024-02-21T07:08:26;95294.56;;;11.64;66.64
10462;BME280;5278;42.656;23.374;2024-02-21T07:10:53;95291.78;;;11.66;66.19
10462;BME280;5278;42.656;23.374;2024-02-21T07:13:19;95305.66;;;11.75;66.07
10462;BME280;5278;42.656;23.374;2024-02-21T07:15:48;95286.56;;;11.82;65.78
10462;BME280;5278;42.656;23.374;2024-02-21T07:18:15;95297.47;;;11.86;65.30
10462;BME280;5278;42.656;23.374;2024-02-21T07:20:41;95298.94;;;11.88;65.01
10462;BME280;5278;42.656;23.374;2024-02-21T07:23:08;95304.81;;;11.82;65.25
10462;BME280;5278;42.656;23.374;2024-02-21T07:25:35;95298.78;;;11.65;65.67
10462;BME280;5278;42.656;23.374;2024-02-21T07:28:02;95304.00;;;11.65;65.86
10462;BME280;5278;42.656;23.374;2024-02-21T07:30:29;95299.91;;;11.71;66.05
10462;BME280;5278;42.656;23.374;2024-02-21T07:32:57;95302.19;;;11.66;66.00
10462;BME280;5278;42.656;23.374;2024-02-21T07:35:24;95302.22;;;11.50;66.44
10462;BME280;5278;42.656;23.374;2024-02-21T07:37:50;95309.66;;;11.37;66.74
10462;BME280;5278;42.656;23.374;2024-02-21T07:40:17;95300.53;;;11.16;67.28
10462;BME280;5278;42.656;23.374;2024-02-21T07:42:44;95302.38;;;11.24;67.45
10462;BME280;5278;42.656;23.374;2024-02-21T07:45:11;95303.81;;;11.18;67.68
10462;BME280;5278;42.656;23.374;2024-02-21T07:47:37;95300.22;;;11.03;68.22
10462;BME280;5278;42.656;23.374;2024-02-21T07:50:07;95302.97;;;11.02;69.57
10462;BME280;5278;42.656;23.374;2024-02-21T07:52:34;95294.34;;;10.93;69.09
10462;BME280;5278;42.656;23.374;2024-02-21T07:55:07;95295.34;;;11.00;69.42
10462;BME280;5278;42.656;23.374;2024-02-21T07:57:35;95278.91;;;10.92;69.28
10462;BME280;5278;42.656;23.374;2024-02-21T08:00:03;95291.09;;;10.91;69.44
10462;BME280;5278;42.656;23.374;2024-02-21T08:02:29;95294.00;;;10.96;69.50
10462;BME280;5278;42.656;23.374;2024-02-21T08:04:56;95290.16;;;11.08;69.15
10462;BME280;5278;42.656;23.374;2024-02-21T08:07:24;95290.97;;;11.17;68.43
10462;BME280;5278;42.656;23.374;2024-02-21T08:09:54;95296.66;;;11.12;68.60
10462;BME280;5278;42.656;23.374;2024-02-21T08:12:21;95291.47;;;11.20;68.53
10462;BME280;5278;42.656;23.374;2024-02-21T08:14:47;95288.22;;;11.43;67.80
10462;BME280;5278;42.656;23.374;2024-02-21T08:17:14;95295.06;;;11.84;66.14
10462;BME280;5278;42.656;23.374;2024-02-21T08:19:41;95289.78;;;12.08;63.90
10462;BME280;5278;42.656;23.374;2024-02-21T08:22:07;95265.88;;;12.05;63.79
10462;BME280;5278;42.656;23.374;2024-02-21T08:24:35;95303.84;;;12.38;63.15
10462;BME280;5278;42.656;23.374;2024-02-21T08:27:04;95282.00;;;12.47;62.12
10462;BME280;5278;42.656;23.374;2024-02-21T08:29:31;95274.31;;;12.54;61.77
10462;BME280;5278;42.656;23.374;2024-02-21T08:31:58;95277.16;;;12.67;61.61
10462;BME280;5278;42.656;23.374;2024-02-21T08:34:24;95266.94;;;13.42;60.01
10462;BME280;5278;42.656;23.374;2024-02-21T08:36:51;95271.00;;;14.55;55.53
10462;BME280;5278;42.656;23.374;2024-02-21T08:39:18;95278.59;;;15.43;52.04
10462;BME280;5278;42.656;23.374;2024-02-21T08:41:46;95271.19;;;15.96;49.24
10462;BME280;5278;42.656;23.374;2024-02-21T08:44:12;95262.31;;;16.31;47.35
10462;BME280;5278;42.656;23.374;2024-02-21T08:46:39;95262.38;;;16.45;46.41
10462;BME280;5278;42.656;23.374;2024-02-21T08:49:06;95263.69;;;16.21;45.51
10462;BME280;5278;42.656;23.374;2024-02-21T08:51:32;95274.31;;;15.85;45.98
10462;BME280;5278;42.656;23.374;2024-02-21T08:54:00;95268.25;;;15.78;47.02
10462;BME280;5278;42.656;23.374;2024-02-21T08:56:30;95262.50;;;15.68;47.56
10462;BME280;5278;42.656;23.374;2024-02-21T08:58:58;95270.50;;;15.60;47.77
10462;BME280;5278;42.656;23.374;2024-02-21T09:01:26;95271.81;;;15.49;47.92
10462;BME280;5278;42.656;23.374;2024-02-21T09:03:53;95259.50;;;15.49;47.76
10462;BME280;5278;42.656;23.374;2024-02-21T09:06:22;95269.25;;;15.56;48.09
10462;BME280;5278;42.656;23.374;2024-02-21T09:08:48;95264.63;;;15.36;48.31
10462;BME280;5278;42.656;23.374;2024-02-21T09:11:15;95267.63;;;15.12;48.61
10462;BME280;5278;42.656;23.374;2024-02-21T09:13:42;95271.31;;;15.18;48.99
10462;BME280;5278;42.656;23.374;2024-02-21T09:16:10;95265.34;;;14.88;49.18
10462;BME280;5278;42.656;23.374;2024-02-21T09:18:36;95276.50;;;14.46;50.46
10462;BME280;5278;42.656;23.374;2024-02-21T09:21:03;95276.75;;;13.92;52.33
10462;BME280;5278;42.656;23.374;2024-02-21T09:23:30;95272.78;;;13.82;52.79
10462;BME280;5278;42.656;23.374;2024-02-21T09:25:57;95268.28;;;14.05;52.70
10462;BME280;5278;42.656;23.374;2024-02-21T09:28:25;95258.19;;;14.02;52.92
10462;BME280;5278;42.656;23.374;2024-02-21T09:30:52;95258.31;;;14.08;52.87
10462;BME280;5278;42.656;23.374;2024-02-21T09:33:20;95269.84;;;14.29;52.71
10462;BME280;5278;42.656;23.374;2024-02-21T09:35:47;95258.47;;;14.21;52.60
10462;BME280;5278;42.656;23.374;2024-02-21T09:38:14;95267.66;;;14.17;52.14
10462;BME280;5278;42.656;23.374;2024-02-21T09:40:40;95275.50;;;14.03;52.66
10462;BME280;5278;42.656;23.374;2024-02-21T09:43:07;95261.53;;;14.10;52.73
10462;BME280;5278;42.656;23.374;2024-02-21T09:45:34;95272.38;;;14.37;52.42
10462;BME280;5278;42.656;23.374;2024-02-21T09:48:19;95264.50;;;14.22;52.24
10462;BME280;5278;42.656;23.374;2024-02-21T09:50:53;95264.53;;;14.37;52.00
10462;BME280;5278;42.656;23.374;2024-02-21T09:53:21;95239.72;;;14.33;52.34
10462;BME280;5278;42.656;23.374;2024-02-21T09:55:50;95267.72;;;14.83;51.05
10462;BME280;5278;42.656;23.374;2024-02-21T09:58:17;95264.00;;;15.13;50.24
10462;BME280;5278;42.656;23.374;2024-02-21T10:00:44;95263.41;;;15.54;48.44
10462;BME280;5278;42.656;23.374;2024-02-21T10:03:11;95258.81;;;16.18;46.24
10462;BME280;5278;42.656;23.374;2024-02-21T10:05:38;95257.75;;;16.47;45.37
10462;BME280;5278;42.656;23.374;2024-02-21T10:08:06;95252.06;;;16.84;44.16
10462;BME280;5278;42.656;23.374;2024-02-21T10:10:43;95245.25;;;16.96;43.16
10462;BME280;5278;42.656;23.374;2024-02-21T10:13:10;95245.69;;;17.19;42.19
10462;BME280;5278;42.656;23.374;2024-02-21T10:15:37;95240.44;;;17.19;41.87
10462;BME280;5278;42.656;23.374;2024-02-21T10:18:04;95238.66;;;17.13;41.59
10462;BME280;5278;42.656;23.374;2024-02-21T10:20:32;95246.22;;;16.82;41.79
10462;BME280;5278;42.656;23.374;2024-02-21T10:23:02;95236.13;;;16.86;41.30
10462;BME280;5278;42.656;23.374;2024-02-21T10:25:34;95237.28;;;16.70;41.22
10462;BME280;5278;42.656;23.374;2024-02-21T10:28:03;95236.28;;;16.30;42.42
10462;BME280;5278;42.656;23.374;2024-02-21T10:30:30;95242.50;;;15.88;43.65
10462;BME280;5278;42.656;23.374;2024-02-21T10:32:57;95180.31;;;15.69;44.05
10462;BME280;5278;42.656;23.374;2024-02-21T10:35:27;95220.44;;;16.10;43.93
10462;BME280;5278;42.656;23.374;2024-02-21T10:37:55;95218.13;;;16.28;42.97
10462;BME280;5278;42.656;23.374;2024-02-21T10:40:23;95208.84;;;16.26;41.50
10462;BME280;5278;42.656;23.374;2024-02-21T10:42:56;95205.72;;;16.50;40.04
10462;BME280;5278;42.656;23.374;2024-02-21T10:45:29;95195.41;;;17.16;39.28
10462;BME280;5278;42.656;23.374;2024-02-21T10:48:01;95190.13;;;17.88;38.18
10462;BME280;5278;42.656;23.374;2024-02-21T10:50:32;95179.63;;;17.95;37.93
10462;BME280;5278;42.656;23.374;2024-02-21T10:53:09;95180.97;;;18.17;37.49
10462;BME280;5278;42.656;23.374;2024-02-21T10:55:50;95167.47;;;18.52;36.87
10462;BME280;5278;42.656;23.374;2024-02-21T10:58:20;95173.72;;;18.64;36.13
10462;BME280;5278;42.656;23.374;2024-02-21T11:00:47;95166.28;;;18.54;36.00
10462;BME280;5278;42.656;23.374;2024-02-21T11:03:13;95162.84;;;18.91;35.68
10462;BME280;5278;42.656;23.374;2024-02-21T11:05:40;95159.59;;;19.21;34.91
10462;BME280;5278;42.656;23.374;2024-02-21T11:08:10;95152.50;;;19.71;34.49
10462;BME280;5278;42.656;23.374;2024-02-21T11:10:37;95149.88;;;19.89;33.74
10462;BME280;5278;42.656;23.374;2024-02-21T11:13:07;95145.06;;;20.41;33.41
10462;BME280;5278;42.656;23.374;2024-02-21T11:15:35;95142.94;;;20.49;32.11
10462;BME280;5278;42.656;23.374;2024-02-21T11:18:02;95142.63;;;20.03;32.91
10462;BME280;5278;42.656;23.374;2024-02-21T11:20:32;95141.41;;;20.05;33.09
10462;BME280;5278;42.656;23.374;2024-02-21T11:23:00;95137.50;;;20.26;45.75
10462;BME280;5278;42.656;23.374;2024-02-21T11:25:28;95138.00;;;20.53;40.02
10462;BME280;5278;42.656;23.374;2024-02-21T11:28:00;95129.47;;;21.11;36.60
10462;BME280;5278;42.656;23.374;2024-02-21T11:30:27;95122.09;;;21.66;32.67
10462;BME280;5278;42.656;23.374;2024-02-21T11:33:00;95129.28;;;21.24;33.01
10462;BME280;5278;42.656;23.374;2024-02-21T11:35:31;95130.34;;;21.81;30.65
10462;BME280;5278;42.656;23.374;2024-02-21T11:38:08;95129.31;;;22.05;29.25
10462;BME280;5278;42.656;23.374;2024-02-21T11:40:38;95120.91;;;21.73;30.79
10462;BME280;5278;42.656;23.374;2024-02-21T11:43:04;95127.25;;;21.49;30.99
10462;BME280;5278;42.656;23.374;2024-02-21T11:45:31;95118.03;;;21.40;30.59
10462;BME280;5278;42.656;23.374;2024-02-21T11:48:00;95115.16;;;21.30;31.21
10462;BME280;5278;42.656;23.374;2024-02-21T11:50:29;95116.22;;;20.99;30.95
10462;BME280;5278;42.656;23.374;2024-02-21T11:52:56;95104.78;;;20.75;31.12
10462;BME280;5278;42.656;23.374;2024-02-21T11:55:23;95114.59;;;20.56;31.45
10462;BME280;5278;42.656;23.374;2024-02-21T11:57:50;95107.66;;;20.44;31.43
10462;BME280;5278;42.656;23.374;2024-02-21T12:00:19;95113.00;;;20.19;32.00
10462;BME280;5278;42.656;23.374;2024-02-21T12:02:46;95110.41;;;20.01;32.28
10462;BME280;5278;42.656;23.374;2024-02-21T12:05:15;95110.09;;;19.91;32.27
10462;BME280;5278;42.656;23.374;2024-02-21T12:07:42;95117.41;;;19.70;32.33
10462;BME280;5278;42.656;23.374;2024-02-21T12:10:10;95114.16;;;19.25;33.19
10462;BME280;5278;42.656;23.374;2024-02-21T12:12:37;95113.84;;;18.84;34.05
10462;BME280;5278;42.656;23.374;2024-02-21T12:15:05;95104.25;;;18.65;34.31
10462;BME280;5278;42.656;23.374;2024-02-21T12:17:32;95096.00;;;18.61;34.26
10462;BME280;5278;42.656;23.374;2024-02-21T12:20:00;95112.19;;;18.58;34.55
10462;BME280;5278;42.656;23.374;2024-02-21T12:22:30;95102.88;;;18.62;34.28
10462;BME280;5278;42.656;23.374;2024-02-21T12:24:57;95086.94;;;18.06;34.19
10462;BME280;5278;42.656;23.374;2024-02-21T12:27:24;95100.84;;;17.42;35.29
10462;BME280;5278;42.656;23.374;2024-02-21T12:29:51;95084.69;;;16.86;36.63
10462;BME280;5278;42.656;23.374;2024-02-21T12:32:18;95101.16;;;16.54;37.53
10462;BME280;5278;42.656;23.374;2024-02-21T12:34:45;95103.09;;;16.12;38.36
10462;BME280;5278;42.656;23.374;2024-02-21T12:37:11;95102.31;;;15.71;39.39
10462;BME280;5278;42.656;23.374;2024-02-21T12:39:42;95097.81;;;15.30;40.47
10462;BME280;5278;42.656;23.374;2024-02-21T12:42:09;95086.53;;;15.02;41.09
10462;BME280;5278;42.656;23.374;2024-02-21T12:44:37;95103.00;;;14.75;40.96
10462;BME280;5278;42.656;23.374;2024-02-21T12:47:04;95017.13;;;13.93;41.67
10462;BME280;5278;42.656;23.374;2024-02-21T12:49:30;95103.97;;;14.31;42.38
10462;BME280;5278;42.656;23.374;2024-02-21T12:51:57;95095.25;;;14.24;43.06
10462;BME280;5278;42.656;23.374;2024-02-21T12:54:24;95102.69;;;14.06;43.71
10462;BME280;5278;42.656;23.374;2024-02-21T12:56:54;95107.38;;;13.96;44.06
10462;BME280;5278;42.656;23.374;2024-02-21T12:59:22;95091.66;;;13.89;44.32
10462;BME280;5278;42.656;23.374;2024-02-21T13:01:49;95096.00;;;13.67;44.48
10462;BME280;5278;42.656;23.374;2024-02-21T13:04:16;95090.88;;;13.45;45.11
10462;BME280;5278;42.656;23.374;2024-02-21T13:06:42;95091.13;;;13.20;47.01